Orbital elements of FENGYUN 1C DEB
| Launched | 9 May 1999 |
| Flight ended | – |
| Launch site | Taiyuan Space Center, PRC |
| Owner | People's Republic of China |
| NORAD ID | 29812 |
| Date fetched |
Epoch osculation |
Inc. [°] |
Ecc. | RA asc node [hr] |
Arg Peri. [°] |
Mean anom [°] |
Mean motion [rev/day] |
Abs. mag |
| Date fetched |
Epoch osculation |
Inc. [°] |
Ecc. | RA asc node [hr] |
Arg Peri. [°] |
Mean anom [°] |
Mean motion [rev/day] |
Abs. mag |
| 2026 May 08 17:57 | 2026 May 04 10:40:09 | 98.3561 | 0.01421 | 20.4335 | 284.3250 | 138.4589 | 14.02548 | – |
| 2026 May 07 17:58 | 2026 May 04 10:40:09 | 98.3561 | 0.01421 | 20.4335 | 284.3250 | 138.4589 | 14.02548 | – |
| 2026 May 06 17:57 | 2026 May 04 10:40:09 | 98.3561 | 0.01421 | 20.4335 | 284.3250 | 138.4589 | 14.02548 | – |
| 2026 May 05 17:57 | 2026 May 04 10:40:09 | 98.3561 | 0.01421 | 20.4335 | 284.3250 | 138.4589 | 14.02548 | – |
| 2026 May 04 17:57 | 2026 Apr 29 10:48:43 | 98.3552 | 0.01422 | 20.1279 | 298.5409 | 138.4589 | 14.02548 | – |
| 2026 May 03 17:57 | 2026 Apr 29 10:48:43 | 98.3552 | 0.01422 | 20.1279 | 298.5409 | 138.4589 | 14.02548 | – |
| 2026 May 02 17:57 | 2026 Apr 29 10:48:43 | 98.3552 | 0.01422 | 20.1279 | 298.5409 | 138.4589 | 14.02548 | – |
| 2026 May 01 17:56 | 2026 Apr 29 10:48:43 | 98.3552 | 0.01422 | 20.1279 | 298.5409 | 138.4589 | 14.02548 | – |
| 2026 Apr 30 17:56 | 2026 Apr 29 10:48:43 | 98.3552 | 0.01422 | 20.1279 | 298.5409 | 138.4589 | 14.02548 | – |
| 2026 Apr 29 17:57 | 2026 Apr 24 10:48:15 | 98.3549 | 0.01424 | 19.8219 | 312.8748 | 138.4589 | 14.02548 | – |
| 2026 Apr 28 17:56 | 2026 Apr 24 10:48:15 | 98.3549 | 0.01424 | 19.8219 | 312.8748 | 138.4589 | 14.02548 | – |
| 2026 Apr 27 17:58 | 2026 Apr 24 10:48:15 | 98.3549 | 0.01424 | 19.8219 | 312.8748 | 138.4589 | 14.02548 | – |
| 2026 Apr 26 17:58 | 2026 Apr 24 10:48:15 | 98.3549 | 0.01424 | 19.8219 | 312.8748 | 138.4589 | 14.02548 | – |
| 2026 Apr 25 17:58 | 2026 Apr 24 10:48:15 | 98.3549 | 0.01424 | 19.8219 | 312.8748 | 138.4589 | 14.02548 | – |
| 2026 Apr 24 17:59 | 2026 Apr 24 10:48:15 | 98.3549 | 0.01424 | 19.8219 | 312.8748 | 138.4589 | 14.02548 | – |
| 2026 Apr 23 17:57 | 2026 Apr 17 11:00:41 | 98.3550 | 0.01426 | 19.3941 | 332.8322 | 138.4589 | 14.02548 | – |
| 2026 Apr 22 17:57 | 2026 Apr 17 11:00:41 | 98.3550 | 0.01426 | 19.3941 | 332.8322 | 138.4589 | 14.02548 | – |
| 2026 Apr 21 17:57 | 2026 Apr 17 11:00:41 | 98.3550 | 0.01426 | 19.3941 | 332.8322 | 138.4589 | 14.02548 | – |
| 2026 Apr 20 17:57 | 2026 Apr 17 11:00:41 | 98.3550 | 0.01426 | 19.3941 | 332.8322 | 138.4589 | 14.02548 | – |
| 2026 Apr 19 17:58 | 2026 Apr 17 11:00:41 | 98.3550 | 0.01426 | 19.3941 | 332.8322 | 138.4589 | 14.02548 | – |
| 2026 Apr 18 17:56 | 2026 Apr 12 11:09:29 | 98.3546 | 0.01429 | 19.0884 | 347.1091 | 138.4589 | 14.02548 | – |
| 2026 Apr 16 17:57 | 2026 Apr 12 11:09:29 | 98.3546 | 0.01429 | 19.0884 | 347.1091 | 138.4589 | 14.02548 | – |
| 2026 Apr 14 17:57 | 2026 Apr 12 11:09:29 | 98.3546 | 0.01429 | 19.0884 | 347.1091 | 138.4589 | 14.02548 | – |
| 2026 Apr 13 17:57 | 2026 Apr 12 11:09:29 | 98.3546 | 0.01429 | 19.0884 | 347.1091 | 138.4589 | 14.02548 | – |
| 2026 Apr 12 17:57 | 2026 Apr 08 11:23:43 | 98.3553 | 0.01433 | 18.8443 | 358.4495 | 138.4589 | 14.02548 | – |
| 2026 Apr 11 17:57 | 2026 Apr 08 11:23:43 | 98.3553 | 0.01433 | 18.8443 | 358.4495 | 138.4589 | 14.02548 | – |